KTOL/TOL METAR and TAF weather

Enter ICAO airport designator
Station Type Date Time Source
KTOL METAR 2022/08/12 13:52 UTC NOAA

KTOL 121352Z 36007KT 10SM CLR 21/12 A3023 RMK AO2 SLP234 T02060117


Station Type Date Time Source
KTOL Decoded METAR 2022/08/12 13:52 UTC NOAA

TOLEDO EXPRESS AIRPORT, OH, United States (KTOL) 41-35N 083-48W 210M
Aug 12, 2022 - 09:52 AM EDT / 2022.08.12 1352 UTC
Wind: from the N (360 degrees) at 8 MPH (7 KT):0
Visibility: 10 mile(s):0
Sky conditions: clear
Temperature: 69.1 F (20.6 C)
Dew Point: 53.1 F (11.7 C)
Relative Humidity: 56%
Pressure (altimeter): 30.23 in. Hg (1023 hPa)
ob: KTOL 121352Z 36007KT 10SM CLR 21/12 A3023 RMK AO2 SLP234 T02060117
cycle: 14

Station Type Date Time Source
KTOL TAF 2022/08/12 12:36 UTC NOAA

TAF KTOL 121135Z 1212/1312 VRB05KT P6SM FEW250

Example: see airport list